Time;durP1;ratioP1;P1;durP2;ratioP2;P2;SDS_P1;SDS_P2;PMS_P1;PMS_P2;Temp;Humidity;BMP_temperature;BMP_pressure;BME280_temperature;BME280_humidity;BME280_pressure;Samples;Min_cycle;Max_cycle;Signal;HPM_P1;HPM_P2
2022/10/05 00:02:19;;;;;;;7.50;5.07;;;16.30;67.40;;;;;;5115723;27;20130;-72
2022/10/05 00:04:46;;;;;;;8.80;5.15;;;16.30;67.30;;;;;;5132086;27;20035;-72
2022/10/05 00:07:15;;;;;;;9.73;5.28;;;16.30;67.20;;;;;;5132988;27;20042;-72
2022/10/05 00:09:43;;;;;;;6.70;4.65;;;16.30;67.10;;;;;;5130512;27;20565;-72
2022/10/05 00:12:17;;;;;;;7.15;5.25;;;16.30;67.00;;;;;;5132912;27;20031;-72
2022/10/05 00:14:45;;;;;;;5.90;4.88;;;16.30;67.00;;;;;;5132649;27;20031;-72
2022/10/05 00:17:19;;;;;;;8.05;4.50;;;16.30;67.00;;;;;;5132630;27;20398;-72
2022/10/05 00:19:50;;;;;;;7.47;4.72;;;16.30;66.90;;;;;;5132204;27;20035;-72
2022/10/05 00:22:22;;;;;;;7.18;4.90;;;16.30;66.90;;;;;;5115207;27;20031;-72
2022/10/05 00:24:50;;;;;;;6.80;4.30;;;16.30;66.90;;;;;;5128925;27;20078;-72
2022/10/05 00:27:19;;;;;;;6.00;4.75;;;16.30;66.90;;;;;;5113299;27;20471;-72
2022/10/05 00:29:46;;;;;;;6.00;4.85;;;16.30;66.80;;;;;;5115506;27;20031;-72
2022/10/05 00:32:13;;;;;;;6.88;4.88;;;16.30;66.90;;;;;;5132899;27;20103;-72
2022/10/05 00:34:38;;;;;;;9.07;5.03;;;16.30;66.90;;;;;;5130014;27;20367;-72
2022/10/05 00:37:05;;;;;;;6.40;4.20;;;16.30;66.90;;;;;;5132337;27;20038;-72
2022/10/05 00:39:32;;;;;;;5.00;4.38;;;16.30;66.90;;;;;;5132021;27;20038;-72
2022/10/05 00:41:58;;;;;;;6.93;4.75;;;16.30;66.90;;;;;;5132668;27;20067;-72
2022/10/05 00:44:35;;;;;;;6.47;4.75;;;16.30;67.00;;;;;;5131679;27;20522;-72
2022/10/05 00:47:08;;;;;;;7.03;5.03;;;16.30;67.10;;;;;;5131469;27;20045;-72
2022/10/05 00:49:36;;;;;;;7.88;5.45;;;16.30;67.10;;;;;;5147305;27;20027;-72
2022/10/05 00:52:25;;;;;;;7.95;5.15;;;16.30;67.20;;;;;;5131625;27;20045;-72
2022/10/05 00:55:12;;;;;;;8.70;5.40;;;16.30;67.10;;;;;;5117126;27;20366;-72
2022/10/05 00:57:52;;;;;;;7.00;4.90;;;16.30;67.30;;;;;;5129055;27;20460;-72
2022/10/05 01:00:22;;;;;;;10.45;5.80;;;16.30;67.30;;;;;;5131712;27;20039;-72
2022/10/05 01:03:17;;;;;;;8.02;5.50;;;16.30;67.40;;;;;;5114641;27;20042;-72
2022/10/05 01:05:43;;;;;;;6.45;4.80;;;16.30;67.30;;;;;;5131210;27;20071;-72
2022/10/05 01:08:33;;;;;;;7.35;5.45;;;16.30;67.40;;;;;;5114649;27;20063;-71
2022/10/05 01:11:15;;;;;;;9.30;5.80;;;16.30;67.40;;;;;;5131960;27;20082;-72
2022/10/05 01:14:03;;;;;;;7.15;5.70;;;16.20;67.40;;;;;;5114265;27;20039;-72
2022/10/05 01:16:33;;;;;;;9.63;6.45;;;16.20;67.50;;;;;;5114873;27;20051;-72
2022/10/05 01:19:35;;;;;;;8.80;6.43;;;16.20;67.50;;;;;;5148319;27;20039;-72
2022/10/05 01:22:22;;;;;;;7.90;5.95;;;16.20;67.60;;;;;;5129326;27;20058;-72
2022/10/05 01:24:47;;;;;;;11.55;6.28;;;16.20;67.70;;;;;;5131080;27;20038;-72
2022/10/05 01:27:39;;;;;;;8.75;5.68;;;16.20;67.80;;;;;;5131049;27;20130;-72
2022/10/05 01:30:12;;;;;;;8.00;5.68;;;16.20;67.80;;;;;;5111770;27;20027;-72
2022/10/05 01:32:50;;;;;;;8.93;6.05;;;16.20;67.90;;;;;;5130763;27;20088;-72
2022/10/05 01:35:43;;;;;;;9.05;6.47;;;16.20;68.00;;;;;;5130047;27;20043;-72
2022/10/05 01:38:19;;;;;;;10.68;6.22;;;16.20;68.10;;;;;;5131271;27;20045;-72
2022/10/05 01:41:01;;;;;;;8.77;5.93;;;16.20;68.00;;;;;;5131219;27;20498;-72
2022/10/05 01:43:45;;;;;;;8.95;6.70;;;16.20;68.00;;;;;;5130702;27;20046;-72
2022/10/05 01:46:38;;;;;;;10.85;7.53;;;16.20;68.10;;;;;;5131275;28;20188;-72
2022/10/05 01:49:39;;;;;;;9.25;6.45;;;16.20;68.10;;;;;;5129757;28;20050;-72
2022/10/05 01:52:16;;;;;;;10.38;6.40;;;16.20;68.10;;;;;;5131016;28;20037;-72
2022/10/05 01:55:03;;;;;;;9.80;7.22;;;16.20;68.30;;;;;;5113782;28;20359;-72
2022/10/05 01:57:37;;;;;;;10.35;6.93;;;16.20;68.30;;;;;;5143234;27;20046;-72
2022/10/05 02:00:11;;;;;;;9.82;7.22;;;16.20;68.30;;;;;;5130930;28;20099;-72
2022/10/05 02:02:44;;;;;;;8.48;6.60;;;16.10;68.20;;;;;;5130898;28;20031;-72
2022/10/05 02:05:17;;;;;;;9.38;6.75;;;16.20;68.40;;;;;;5130944;27;20108;-72
2022/10/05 02:08:07;;;;;;;7.82;6.22;;;16.20;68.40;;;;;;5118008;27;20122;-72
2022/10/05 02:10:46;;;;;;;8.65;6.65;;;16.10;68.20;;;;;;5117612;27;20038;-71
2022/10/05 02:13:18;;;;;;;9.93;6.72;;;16.10;68.30;;;;;;5147740;27;20486;-72
2022/10/05 02:15:51;;;;;;;10.18;6.45;;;16.10;68.40;;;;;;5133094;27;20039;-72
2022/10/05 02:18:26;;;;;;;7.72;5.47;;;16.10;68.30;;;;;;5117741;27;20511;-72
2022/10/05 02:20:55;;;;;;;8.50;6.15;;;16.10;68.40;;;;;;5134869;27;20039;-72
2022/10/05 02:23:25;;;;;;;8.98;5.65;;;16.10;68.30;;;;;;5133892;27;20050;-73
2022/10/05 02:25:53;;;;;;;7.85;5.63;;;16.10;68.30;;;;;;5134697;27;20043;-73
2022/10/05 02:28:38;;;;;;;7.28;5.43;;;16.10;68.30;;;;;;5134783;27;20043;-72
2022/10/05 02:31:14;;;;;;;9.93;6.25;;;16.10;68.20;;;;;;5117994;27;20067;-72
2022/10/05 02:33:39;;;;;;;7.75;5.80;;;16.10;68.30;;;;;;5142736;27;20420;-72
2022/10/05 02:36:34;;;;;;;7.93;5.45;;;16.10;68.20;;;;;;5134760;27;20035;-72
2022/10/05 02:39:19;;;;;;;8.65;5.72;;;16.10;68.20;;;;;;5134862;27;20109;-72
2022/10/05 02:42:28;;;;;;;7.00;5.75;;;16.10;68.20;;;;;;5134228;27;20046;-72
2022/10/05 02:45:08;;;;;;;7.97;5.22;;;16.10;68.10;;;;;;5116255;27;20111;-72
2022/10/05 02:47:51;;;;;;;5.82;4.75;;;16.10;68.10;;;;;;5117347;27;20035;-72
2022/10/05 02:50:26;;;;;;;7.90;5.95;;;16.00;68.10;;;;;;5117029;27;20035;-72
2022/10/05 02:53:11;;;;;;;7.53;5.38;;;16.00;68.00;;;;;;5134366;27;20042;-72
2022/10/05 02:55:43;;;;;;;8.10;5.25;;;16.00;68.00;;;;;;5114935;27;20043;-72
2022/10/05 02:58:14;;;;;;;9.00;5.45;;;16.00;68.00;;;;;;5133798;27;20095;-72
2022/10/05 03:01:06;;;;;;;8.40;5.72;;;16.00;67.90;;;;;;5115531;27;20039;-72
2022/10/05 03:03:44;;;;;;;6.57;5.32;;;16.10;67.90;;;;;;5133555;27;20512;-72
2022/10/05 03:06:34;;;;;;;8.38;5.93;;;16.00;68.00;;;;;;5134250;27;20055;-72
2022/10/05 03:09:08;;;;;;;7.32;5.13;;;16.00;68.30;;;;;;5114470;27;20033;-72
2022/10/05 03:11:43;;;;;;;8.65;5.88;;;16.00;68.10;;;;;;5134190;27;20046;-72
2022/10/05 03:14:17;;;;;;;8.45;6.13;;;16.00;68.00;;;;;;5133211;27;20505;-72
2022/10/05 03:16:54;;;;;;;7.90;5.35;;;16.00;68.00;;;;;;5133111;27;20042;-72
2022/10/05 03:19:46;;;;;;;6.68;4.95;;;16.00;67.90;;;;;;5134139;27;20106;-72
2022/10/05 03:23:10;;;;;;;8.40;5.88;;;16.00;67.80;;;;;;5116497;27;20124;-72
2022/10/05 03:25:58;;;;;;;7.20;4.93;;;16.00;67.80;;;;;;5082920;27;20055;-72
2022/10/05 03:28:34;;;;;;;7.78;5.80;;;16.00;67.90;;;;;;5132380;27;20632;-72
2022/10/05 03:31:03;;;;;;;7.55;6.18;;;16.00;67.90;;;;;;5133357;27;20061;-72
2022/10/05 03:33:45;;;;;;;7.07;5.80;;;16.00;67.90;;;;;;5133653;27;20070;-72
2022/10/05 03:37:03;;;;;;;8.85;6.40;;;16.00;68.00;;;;;;5133675;27;20097;-72
2022/10/05 03:39:59;;;;;;;7.63;5.55;;;16.00;67.80;;;;;;5092130;27;20112;-72
2022/10/05 03:42:54;;;;;;;8.90;5.32;;;16.00;67.90;;;;;;5142770;27;20390;-71
2022/10/05 03:45:40;;;;;;;;;;;16.00;67.80;;;;;;5133670;27;20047;-72
2022/10/05 03:48:16;;;;;;;9.57;6.90;;;16.00;67.80;;;;;;5133202;27;19922;-72
2022/10/05 03:50:50;;;;;;;9.80;6.35;;;16.00;68.00;;;;;;5133377;27;20386;-72
2022/10/05 03:53:23;;;;;;;12.50;6.93;;;15.90;68.00;;;;;;5132976;27;20398;-71
2022/10/05 03:56:12;;;;;;;9.98;6.57;;;15.90;68.10;;;;;;5132989;27;20114;-72
2022/10/05 03:59:02;;;;;;;9.10;7.15;;;15.90;68.10;;;;;;5110900;27;20122;-71
2022/10/05 04:01:57;;;;;;;8.85;6.57;;;16.00;68.10;;;;;;5124255;27;20049;-72
2022/10/05 04:04:25;;;;;;;;;;;16.00;68.10;;;;;;5130524;27;20050;-72
2022/10/05 04:06:54;;;;;;;10.02;7.35;;;15.90;67.90;;;;;;5133079;27;20370;-72
2022/10/05 04:09:44;;;;;;;8.55;6.32;;;15.90;68.20;;;;;;5132721;27;20481;-71
2022/10/05 04:12:38;;;;;;;8.23;6.93;;;15.90;68.10;;;;;;5122554;27;20045;-72
2022/10/05 04:15:07;;;;;;;9.35;7.38;;;15.90;68.10;;;;;;5132482;27;20043;-72
2022/10/05 04:17:43;;;;;;;8.57;6.93;;;15.90;68.30;;;;;;5133368;27;20499;-72
2022/10/05 04:20:25;;;;;;;9.00;7.00;;;15.90;68.30;;;;;;5132240;27;20509;-72
2022/10/05 04:23:08;;;;;;;12.98;8.18;;;15.90;68.20;;;;;;5131906;27;20043;-71
2022/10/05 04:25:41;;;;;;;10.48;7.13;;;15.90;68.30;;;;;;5132571;27;20478;-71
2022/10/05 04:29:20;;;;;;;10.32;7.10;;;15.90;68.30;;;;;;5131471;27;20114;-71
2022/10/05 04:32:28;;;;;;;11.23;7.57;;;15.90;68.10;;;;;;4961641;28;20038;-72
2022/10/05 04:35:31;;;;;;;10.27;7.50;;;15.90;68.30;;;;;;5056211;28;20063;-72
2022/10/05 04:38:18;;;;;;;10.77;7.80;;;15.90;68.40;;;;;;5131610;27;20039;-72
2022/10/05 04:40:47;;;;;;;10.23;7.90;;;15.90;68.40;;;;;;5132406;27;20033;-72
2022/10/05 04:43:37;;;;;;;10.55;7.78;;;15.80;68.40;;;;;;5132287;27;20031;-72
2022/10/05 04:46:06;;;;;;;10.32;7.38;;;15.80;68.50;;;;;;5114799;27;20043;-72
2022/10/05 04:49:03;;;;;;;9.40;6.93;;;15.80;68.40;;;;;;5131432;27;20494;-72
2022/10/05 04:51:37;;;;;;;8.70;7.40;;;15.80;68.40;;;;;;5132083;27;20075;-72
2022/10/05 04:54:32;;;;;;;8.52;6.80;;;15.80;68.50;;;;;;5132051;27;20083;-72
2022/10/05 04:57:00;;;;;;;;;;;15.80;68.50;;;;;;5104500;27;20126;-72
2022/10/05 05:00:07;;;;;;;9.60;7.40;;;15.80;68.30;;;;;;5131397;27;19923;-71
2022/10/05 05:02:33;;;;;;;10.00;7.68;;;15.80;68.50;;;;;;5130403;27;20076;-71
2022/10/05 05:05:08;;;;;;;8.77;6.95;;;15.80;68.50;;;;;;5114200;27;20031;-72
2022/10/05 05:07:36;;;;;;;10.60;7.65;;;15.70;68.50;;;;;;5132765;27;20872;-71
2022/10/05 05:10:33;;;;;;;8.40;7.07;;;15.80;68.50;;;;;;5132477;27;20225;-71
2022/10/05 05:13:04;;;;;;;10.57;7.53;;;15.80;68.50;;;;;;5114600;27;20031;-72
2022/10/05 05:15:33;;;;;;;11.82;8.35;;;15.70;68.50;;;;;;5116548;27;20516;-71
2022/10/05 05:18:18;;;;;;;10.77;7.90;;;15.70;68.50;;;;;;5132695;27;20077;-71
2022/10/05 05:21:22;;;;;;;10.63;6.75;;;15.70;68.40;;;;;;5133160;27;20049;-71
2022/10/05 05:23:58;;;;;;;11.23;7.57;;;15.70;68.30;;;;;;5126289;27;20050;-70
2022/10/05 05:26:57;;;;;;;10.68;7.80;;;15.70;68.50;;;;;;5115556;27;20047;-71
2022/10/05 05:29:55;;;;;;;9.75;7.80;;;15.70;68.30;;;;;;5112532;28;20054;-71
2022/10/05 05:32:53;;;;;;;9.50;7.55;;;15.70;68.40;;;;;;5129924;27;20596;-71
2022/10/05 05:35:44;;;;;;;8.25;6.70;;;15.70;68.30;;;;;;5121200;27;20078;-71
2022/10/05 05:38:21;;;;;;;11.45;7.38;;;15.70;68.30;;;;;;5127799;27;20035;-71
2022/10/05 05:41:13;;;;;;;9.73;7.35;;;15.70;68.40;;;;;;5127578;27;20431;-70
2022/10/05 05:44:12;;;;;;;9.68;7.18;;;15.70;68.30;;;;;;5140714;27;20107;-71
2022/10/05 05:46:45;;;;;;;9.35;7.55;;;15.70;68.20;;;;;;5132578;28;20039;-70
2022/10/05 05:49:29;;;;;;;9.82;7.78;;;15.70;68.30;;;;;;5132370;28;20092;-70
2022/10/05 05:51:58;;;;;;;;;;;15.70;68.20;;;;;;5132959;28;20039;-70
2022/10/05 05:54:37;;;;;;;15.60;7.28;;;15.60;68.10;;;;;;5132111;28;20432;-71
2022/10/05 05:57:09;;;;;;;8.50;7.30;;;15.60;68.30;;;;;;5129134;28;20104;-71
2022/10/05 05:59:59;;;;;;;8.75;7.47;;;15.60;68.30;;;;;;5146499;27;20032;-71
2022/10/05 06:03:00;;;;;;;12.15;8.00;;;15.70;68.30;;;;;;5127094;28;20050;-71
2022/10/05 06:05:29;;;;;;;10.52;6.88;;;15.60;68.20;;;;;;5121556;27;20051;-71
2022/10/05 06:07:59;;;;;;;10.93;7.50;;;15.60;68.30;;;;;;5115277;27;20046;-71
2022/10/05 06:10:42;;;;;;;10.93;7.40;;;15.60;68.20;;;;;;5132002;27;20031;-71
2022/10/05 06:13:31;;;;;;;11.10;7.60;;;15.60;68.20;;;;;;5132540;28;20104;-73
2022/10/05 06:16:00;;;;;;;10.18;7.25;;;15.60;68.30;;;;;;5115142;28;20031;-72
2022/10/05 06:18:31;;;;;;;8.50;7.32;;;15.60;68.40;;;;;;5131808;27;20039;-72
2022/10/05 06:21:07;;;;;;;10.48;7.43;;;15.60;68.30;;;;;;5149580;27;20067;-72
2022/10/05 06:23:53;;;;;;;9.00;6.95;;;15.60;68.20;;;;;;5115153;28;20047;-71
2022/10/05 06:26:38;;;;;;;8.82;7.38;;;15.60;68.20;;;;;;5114680;28;20051;-71
2022/10/05 06:29:11;;;;;;;12.43;7.35;;;15.60;68.30;;;;;;5132284;28;20035;-71
2022/10/05 06:32:01;;;;;;;7.65;6.45;;;15.60;68.20;;;;;;5132298;28;20095;-71
2022/10/05 06:34:30;;;;;;;7.90;6.45;;;15.60;68.20;;;;;;5132192;28;20085;-72
2022/10/05 06:37:00;;;;;;;8.07;6.63;;;15.60;68.20;;;;;;5115303;28;20078;-71
2022/10/05 06:39:49;;;;;;;7.10;5.72;;;15.60;68.30;;;;;;5132061;28;20462;-72
2022/10/05 06:42:44;;;;;;;10.45;6.85;;;15.60;68.20;;;;;;5132072;28;20099;-71
2022/10/05 06:45:32;;;;;;;8.73;6.63;;;15.70;68.20;;;;;;5131691;27;20119;-71
2022/10/05 06:48:18;;;;;;;7.28;5.97;;;15.60;68.00;;;;;;5131864;28;20043;-71
2022/10/05 06:50:51;;;;;;;10.20;6.70;;;15.70;68.10;;;;;;5114804;27;20118;-71
2022/10/05 06:53:59;;;;;;;7.70;6.50;;;15.60;68.10;;;;;;5139896;27;20054;-71
2022/10/05 06:56:50;;;;;;;9.45;5.97;;;15.70;68.10;;;;;;5092674;28;20058;-71
2022/10/05 06:59:30;;;;;;;6.82;5.55;;;15.60;68.00;;;;;;5110089;27;20083;-71
2022/10/05 07:02:22;;;;;;;6.82;5.15;;;15.60;68.10;;;;;;5135559;27;20039;-72
2022/10/05 07:04:56;;;;;;;7.72;5.43;;;15.70;68.10;;;;;;5118335;27;20047;-71
2022/10/05 07:07:28;;;;;;;6.53;4.85;;;15.60;68.10;;;;;;5118294;27;20043;-71
2022/10/05 07:10:08;;;;;;;7.95;4.90;;;15.70;68.10;;;;;;5135045;27;20039;-71
2022/10/05 07:13:01;;;;;;;5.32;4.32;;;15.70;67.80;;;;;;5135371;27;20043;-71
2022/10/05 07:15:41;;;;;;;5.82;4.85;;;15.70;67.80;;;;;;5135230;27;20035;-71
2022/10/05 07:18:41;;;;;;;8.50;4.53;;;15.70;67.70;;;;;;5135042;27;20501;-71
2022/10/05 07:21:33;;;;;;;4.85;4.00;;;15.70;67.40;;;;;;5118280;27;20065;-72
2022/10/05 07:24:28;;;;;;;6.43;3.88;;;15.70;67.40;;;;;;5135289;27;20050;-71
2022/10/05 07:27:17;;;;;;;6.30;3.33;;;15.70;67.10;;;;;;5127738;27;20100;-71
2022/10/05 07:29:43;;;;;;;3.78;2.80;;;15.70;67.00;;;;;;5117969;27;20036;-71
2022/10/05 07:32:23;;;;;;;3.72;3.20;;;15.70;67.00;;;;;;5134735;27;20043;-71
2022/10/05 07:37:53;;;;;;;5.88;2.85;;;15.80;66.90;;;;;;5134931;27;20117;-71
2022/10/05 07:38:08;;;;;;;3.63;2.90;;;15.80;66.70;;;;;;5134753;27;20398;-71
2022/10/05 07:41:14;;;;;;;3.92;2.90;;;15.80;66.90;;;;;;5118924;27;20054;-72
2022/10/05 07:43:45;;;;;;;4.28;3.03;;;15.70;66.70;;;;;;5072139;28;20131;-71
2022/10/05 07:46:13;;;;;;;5.20;2.92;;;15.80;66.80;;;;;;5106355;27;20047;-71
2022/10/05 07:49:07;;;;;;;4.32;3.25;;;15.80;66.80;;;;;;5117547;27;20039;-72
2022/10/05 07:51:40;;;;;;;4.32;2.85;;;15.80;66.90;;;;;;5134736;27;20380;-71
2022/10/05 07:54:16;;;;;;;6.38;3.25;;;15.80;67.00;;;;;;5134787;27;20039;-71
2022/10/05 07:56:44;;;;;;;4.75;3.42;;;15.90;67.00;;;;;;5134484;27;20043;-72
2022/10/05 07:59:17;;;;;;;5.97;3.13;;;15.90;67.20;;;;;;5134227;27;20490;-72
2022/10/05 08:01:47;;;;;;;4.25;3.42;;;15.90;67.20;;;;;;5134620;27;20051;-74
2022/10/05 08:04:32;;;;;;;4.40;3.30;;;15.90;67.10;;;;;;5117282;27;20091;-72
2022/10/05 08:07:06;;;;;;;4.28;3.30;;;16.00;67.30;;;;;;5134226;27;20478;-72
2022/10/05 08:09:41;;;;;;;4.90;3.80;;;16.00;67.30;;;;;;5134578;27;20360;-72
2022/10/05 08:12:30;;;;;;;7.03;3.47;;;16.00;67.30;;;;;;5134007;27;20074;-72
2022/10/05 08:15:14;;;;;;;4.45;3.72;;;16.10;67.10;;;;;;5134252;27;20035;-72
2022/10/05 08:17:59;;;;;;;5.22;3.63;;;16.10;67.10;;;;;;5133974;27;20423;-72
2022/10/05 08:20:46;;;;;;;5.65;3.72;;;16.10;67.10;;;;;;5134320;27;20375;-71
2022/10/05 08:23:27;;;;;;;5.70;4.35;;;16.20;67.00;;;;;;5134043;27;20078;-71
2022/10/05 08:25:52;;;;;;;5.10;3.92;;;16.20;67.00;;;;;;5134005;27;20084;-71
2022/10/05 08:28:33;;;;;;;5.70;4.43;;;16.20;66.90;;;;;;5133582;27;20490;-71
2022/10/05 08:31:10;;;;;;;5.15;4.13;;;16.30;66.80;;;;;;5133875;27;20039;-71
2022/10/05 08:34:19;;;;;;;6.80;4.93;;;16.30;66.80;;;;;;5134037;27;20042;-72
2022/10/05 08:37:18;;;;;;;4.97;4.47;;;16.40;66.70;;;;;;5116358;27;20046;-71
2022/10/05 08:39:59;;;;;;;8.02;4.65;;;16.40;66.70;;;;;;5133803;27;20039;-72
2022/10/05 08:42:39;;;;;;;4.85;4.35;;;16.40;66.70;;;;;;5151146;27;20542;-72
2022/10/05 08:45:23;;;;;;;6.70;4.57;;;16.50;66.70;;;;;;5116165;27;20043;-72
2022/10/05 08:47:58;;;;;;;5.38;4.60;;;16.50;66.60;;;;;;5133398;27;20046;-72
2022/10/05 08:50:30;;;;;;;5.93;4.22;;;16.50;66.50;;;;;;5133286;27;20039;-72
2022/10/05 08:53:07;;;;;;;6.63;4.00;;;16.50;66.50;;;;;;5133415;27;20043;-72
2022/10/05 08:55:36;;;;;;;7.55;4.80;;;16.50;66.50;;;;;;5133114;27;20047;-72
2022/10/05 08:58:10;;;;;;;6.32;4.53;;;16.60;66.50;;;;;;5150646;27;20490;-72
2022/10/05 09:00:47;;;;;;;5.68;3.78;;;16.60;66.30;;;;;;5133234;27;20512;-71
2022/10/05 09:03:22;;;;;;;5.00;3.83;;;16.70;66.30;;;;;;5133575;27;20122;-72
2022/10/05 09:06:16;;;;;;;6.90;4.13;;;16.70;66.20;;;;;;5132858;27;20039;-72
2022/10/05 09:09:02;;;;;;;6.60;3.87;;;16.70;66.10;;;;;;5133281;27;20070;-72
2022/10/05 09:11:35;;;;;;;5.13;3.67;;;16.70;66.00;;;;;;5133398;27;20096;-72
2022/10/05 09:14:22;;;;;;;7.93;4.35;;;16.80;65.90;;;;;;5115593;28;20051;-71
2022/10/05 09:17:18;;;;;;;4.55;3.22;;;16.80;65.70;;;;;;5132918;27;20084;-71
2022/10/05 09:19:52;;;;;;;5.25;3.70;;;16.90;65.40;;;;;;5132907;27;20126;-71
2022/10/05 09:22:29;;;;;;;4.60;4.10;;;16.90;65.50;;;;;;5115866;27;20394;-71
2022/10/05 09:25:07;;;;;;;6.05;3.47;;;16.90;65.50;;;;;;5132809;27;20098;-71
2022/10/05 09:27:37;;;;;;;4.60;3.50;;;16.90;65.40;;;;;;5133067;27;20416;-71
2022/10/05 09:30:38;;;;;;;4.15;3.42;;;17.00;65.20;;;;;;5115976;27;20046;-71
2022/10/05 09:33:30;;;;;;;6.45;3.40;;;17.10;65.10;;;;;;5133048;27;20035;-72
2022/10/05 09:36:14;;;;;;;4.70;3.40;;;17.10;64.80;;;;;;5097442;27;20132;-72
2022/10/05 09:39:03;;;;;;;5.35;3.35;;;17.10;64.80;;;;;;5132825;27;20082;-71
2022/10/05 09:41:34;;;;;;;4.65;3.70;;;17.10;64.60;;;;;;5132950;27;20383;-72
2022/10/05 09:44:06;;;;;;;4.65;3.85;;;17.10;64.70;;;;;;5132204;27;20043;-71
2022/10/05 09:47:17;;;;;;;5.97;3.58;;;17.20;64.50;;;;;;5132546;27;20491;-71
2022/10/05 09:50:24;;;;;;;3.67;2.80;;;17.20;64.30;;;;;;5112163;28;20122;-71
2022/10/05 09:53:11;;;;;;;4.85;3.10;;;17.20;64.40;;;;;;5132545;28;20074;-71
2022/10/05 09:56:07;;;;;;;5.82;2.90;;;17.30;64.30;;;;;;5115181;28;20403;-71
2022/10/05 09:58:48;;;;;;;5.57;3.15;;;17.20;64.30;;;;;;5130542;27;20058;-71
2022/10/05 10:01:47;;;;;;;4.90;3.40;;;17.30;64.30;;;;;;5149722;27;20042;-71
2022/10/05 10:04:50;;;;;;;4.18;3.10;;;17.30;64.00;;;;;;5132225;28;20039;-71
2022/10/05 10:07:41;;;;;;;6.22;3.55;;;17.40;63.80;;;;;;5115460;28;20172;-71
2022/10/05 10:10:28;;;;;;;5.30;3.05;;;17.30;63.70;;;;;;5132220;28;20046;-71
2022/10/05 10:13:31;;;;;;;6.15;3.83;;;17.40;63.60;;;;;;5132230;27;20501;-71
2022/10/05 10:16:18;;;;;;;4.40;3.15;;;17.40;63.40;;;;;;5115565;28;20043;-71
2022/10/05 10:19:08;;;;;;;4.70;2.97;;;17.40;63.30;;;;;;5132147;28;20035;-71
2022/10/05 10:22:09;;;;;;;4.47;3.47;;;17.40;63.30;;;;;;5132353;28;20035;-71
2022/10/05 10:25:09;;;;;;;4.80;3.08;;;17.40;63.20;;;;;;5056692;28;20174;-71
2022/10/05 10:27:46;;;;;;;4.60;3.25;;;17.40;63.00;;;;;;5134852;27;20039;-71
2022/10/05 10:30:45;;;;;;;5.22;3.55;;;17.40;63.00;;;;;;5135944;27;20039;-71
2022/10/05 10:33:20;;;;;;;5.18;2.92;;;17.40;63.50;;;;;;5136160;27;20071;-71
2022/10/05 10:36:01;;;;;;;3.95;3.00;;;17.50;63.10;;;;;;5135974;27;20485;-71
2022/10/05 10:38:30;;;;;;;4.75;3.05;;;17.50;62.60;;;;;;5136365;27;20035;-71
2022/10/05 10:41:17;;;;;;;3.42;2.60;;;17.50;62.80;;;;;;5135975;27;20099;-72
2022/10/05 10:44:01;;;;;;;3.70;3.05;;;17.60;62.70;;;;;;5135596;27;20525;-71
2022/10/05 10:46:43;;;;;;;4.47;2.53;;;17.60;62.70;;;;;;5136037;27;20058;-71
2022/10/05 10:49:34;;;;;;;3.30;2.42;;;17.60;62.60;;;;;;5135777;27;20043;-71
2022/10/05 10:52:38;;;;;;;6.97;3.08;;;17.60;62.30;;;;;;5135791;27;20035;-71
2022/10/05 10:55:20;;;;;;;4.82;2.65;;;17.60;61.90;;;;;;5118898;27;20375;-71
2022/10/05 10:57:57;;;;;;;3.60;2.50;;;17.60;62.10;;;;;;5135669;27;20474;-72
2022/10/05 11:00:45;;;;;;;4.47;2.78;;;17.70;61.80;;;;;;5134956;27;20043;-73
2022/10/05 11:03:48;;;;;;;5.18;2.80;;;17.70;61.70;;;;;;5135251;27;20100;-72
2022/10/05 11:06:39;;;;;;;6.95;3.38;;;17.70;61.90;;;;;;5131825;27;20039;-72
2022/10/05 11:09:26;;;;;;;4.95;2.85;;;17.70;61.70;;;;;;5115229;28;20039;-72
2022/10/05 11:12:11;;;;;;;3.72;2.75;;;17.70;61.70;;;;;;5128496;27;20434;-73
2022/10/05 11:14:42;;;;;;;5.72;3.53;;;17.80;61.70;;;;;;5118304;27;20068;-73
2022/10/05 11:17:42;;;;;;;4.97;3.50;;;17.80;61.70;;;;;;5135218;27;20351;-72
2022/10/05 11:20:16;;;;;;;5.30;3.30;;;17.80;61.30;;;;;;5134913;27;20062;-73
2022/10/05 11:23:19;;;;;;;4.65;3.30;;;17.80;61.40;;;;;;5135124;27;20045;-73
2022/10/05 11:26:16;;;;;;;6.97;3.65;;;17.90;61.60;;;;;;5097453;28;20057;-73
2022/10/05 11:29:16;;;;;;;7.15;3.90;;;17.90;61.50;;;;;;5114523;28;20126;-72
2022/10/05 11:32:22;;;;;;;6.22;3.63;;;18.00;61.80;;;;;;5114507;28;20122;-72
2022/10/05 11:35:25;;;;;;;5.82;3.70;;;18.00;61.40;;;;;;5114258;28;20044;-73
2022/10/05 11:38:28;;;;;;;4.47;3.50;;;18.00;61.30;;;;;;5113965;28;20047;-72
2022/10/05 11:41:15;;;;;;;3.95;3.47;;;18.00;61.10;;;;;;5114591;28;20364;-73
2022/10/05 11:44:00;;;;;;;4.38;3.42;;;18.00;61.30;;;;;;5114125;28;20051;-73
2022/10/05 11:46:42;;;;;;;4.20;3.13;;;18.00;61.30;;;;;;5124028;27;20138;-75
2022/10/05 11:49:31;;;;;;;3.63;3.05;;;18.00;61.30;;;;;;5133565;27;20038;-73
2022/10/05 11:52:21;;;;;;;3.55;2.60;;;18.00;61.20;;;;;;5145133;27;20039;-72
2022/10/05 11:55:22;;;;;;;4.93;2.90;;;18.00;61.00;;;;;;5146100;27;20080;-73
2022/10/05 11:57:55;;;;;;;6.20;3.08;;;18.00;61.30;;;;;;5149580;27;20370;-73
2022/10/05 12:00:22;;;;;;;6.18;3.55;;;18.00;61.50;;;;;;5148381;27;20118;-73
2022/10/05 12:03:14;;;;;;;3.13;2.63;;;18.00;62.00;;;;;;5131234;27;20486;-72
2022/10/05 12:06:07;;;;;;;4.32;2.70;;;18.00;61.90;;;;;;5147655;27;20046;-73
2022/10/05 12:08:44;;;;;;;4.68;2.72;;;18.00;61.60;;;;;;5148145;27;20042;-73
2022/10/05 12:11:28;;;;;;;5.28;2.85;;;18.00;61.70;;;;;;5147426;27;20038;-73
2022/10/05 12:13:54;;;;;;;3.90;2.78;;;17.90;61.90;;;;;;5147656;27;20076;-72
2022/10/05 12:16:48;;;;;;;5.20;3.00;;;18.00;62.10;;;;;;5148362;27;20069;-73
2022/10/05 12:19:24;;;;;;;4.40;2.63;;;18.00;62.00;;;;;;5132855;27;20522;-74
2022/10/05 12:22:14;;;;;;;5.75;2.85;;;17.90;62.10;;;;;;5148533;27;20363;-74
2022/10/05 12:25:11;;;;;;;3.97;2.83;;;18.00;62.20;;;;;;5149778;27;20160;-74
2022/10/05 12:27:40;;;;;;;4.43;2.65;;;18.00;62.50;;;;;;5150566;27;20039;-74
2022/10/05 12:30:11;;;;;;;5.53;2.80;;;18.00;62.50;;;;;;5130143;27;20038;-74
2022/10/05 12:32:52;;;;;;;6.68;3.20;;;18.00;62.60;;;;;;5132770;27;20034;-74
2022/10/05 12:35:41;;;;;;;4.80;2.92;;;18.00;62.50;;;;;;5145695;27;20051;-74
2022/10/05 12:39:21;;;;;;;4.30;2.83;;;18.00;62.50;;;;;;5148881;27;20042;-73
2022/10/05 12:41:56;;;;;;;6.43;2.80;;;18.00;62.60;;;;;;4993713;28;20551;-74
2022/10/05 12:44:41;;;;;;;5.50;3.05;;;18.00;62.70;;;;;;5026235;28;20052;-73
2022/10/05 12:47:16;;;;;;;6.18;3.08;;;18.00;62.80;;;;;;5124590;27;20047;-73
2022/10/05 12:49:48;;;;;;;4.22;3.25;;;18.00;62.90;;;;;;5132720;27;20179;-74
2022/10/05 12:52:44;;;;;;;4.28;3.25;;;18.00;62.90;;;;;;5133253;27;20073;-74
2022/10/05 12:55:20;;;;;;;5.20;3.60;;;18.00;62.90;;;;;;5116112;27;20038;-74
2022/10/05 12:57:56;;;;;;;5.10;2.83;;;18.00;63.10;;;;;;5133372;27;20039;-74
2022/10/05 13:00:23;;;;;;;6.95;3.22;;;18.00;63.20;;;;;;5133482;27;20042;-74
2022/10/05 13:03:02;;;;;;;5.38;3.00;;;18.00;63.20;;;;;;5116382;27;20046;-74
2022/10/05 13:05:51;;;;;;;4.85;3.40;;;18.10;63.30;;;;;;5133135;27;20043;-73
2022/10/05 13:08:29;;;;;;;5.18;3.70;;;18.10;63.40;;;;;;5133191;27;20075;-74
2022/10/05 13:11:13;;;;;;;5.38;3.35;;;18.10;63.40;;;;;;5132690;27;20039;-74
2022/10/05 13:14:15;;;;;;;6.82;3.53;;;18.10;63.30;;;;;;5115576;27;20039;-73
2022/10/05 13:17:17;;;;;;;6.38;3.63;;;18.10;63.40;;;;;;5110535;27;20394;-74
2022/10/05 13:19:53;;;;;;;7.00;4.18;;;18.10;63.30;;;;;;5107472;27;20051;-74
2022/10/05 13:22:41;;;;;;;7.35;3.85;;;18.10;63.40;;;;;;5143567;27;20074;-74
2022/10/05 13:25:13;;;;;;;7.10;3.78;;;18.10;63.40;;;;;;5112249;28;20039;-75
2022/10/05 13:28:11;;;;;;;7.28;3.92;;;18.20;63.60;;;;;;5129418;27;20047;-75
2022/10/05 13:30:40;;;;;;;7.32;4.13;;;18.20;63.60;;;;;;5112339;28;20042;-74
2022/10/05 13:33:22;;;;;;;5.78;3.85;;;18.10;63.70;;;;;;5125674;27;20123;-74
2022/10/05 13:35:59;;;;;;;6.90;4.15;;;18.20;63.70;;;;;;5132643;27;20039;-74
2022/10/05 13:38:56;;;;;;;8.55;4.25;;;18.10;63.70;;;;;;5115634;27;20050;-75
2022/10/05 13:41:48;;;;;;;6.25;4.22;;;18.20;63.80;;;;;;5132448;27;20103;-75
2022/10/05 13:44:23;;;;;;;4.90;3.90;;;18.20;64.10;;;;;;5111778;28;20059;-74
2022/10/05 13:47:06;;;;;;;6.10;3.95;;;18.20;64.00;;;;;;5112363;28;20130;-75
2022/10/05 13:49:48;;;;;;;5.60;3.60;;;18.20;64.00;;;;;;5112104;28;20494;-74
2022/10/05 13:52:36;;;;;;;6.38;4.25;;;18.20;64.10;;;;;;5099553;28;20027;-75
2022/10/05 13:55:47;;;;;;;7.60;3.75;;;18.20;63.90;;;;;;5132842;27;20390;-75
2022/10/05 13:58:38;;;;;;;5.72;3.80;;;18.20;63.90;;;;;;5114999;28;20035;-75
2022/10/05 14:01:42;;;;;;;6.40;3.40;;;18.20;64.20;;;;;;5134288;27;20481;-74
2022/10/05 14:04:27;;;;;;;6.70;3.58;;;18.20;64.30;;;;;;5118863;27;20054;-73
2022/10/05 14:06:52;;;;;;;8.57;3.95;;;18.30;64.20;;;;;;5136180;27;20074;-75
2022/10/05 14:09:30;;;;;;;6.43;3.20;;;18.20;64.10;;;;;;5136503;27;20042;-75